“法尼”(BOB 02/01B.Fani)作为2019年首个孟加拉湾自产热带气旋,强势爆发,并有可能冲击C5、影响我国西南部边境地区,特此开帖!欢迎大家留存珍贵的资料孟加拉湾热带气旋“法尼”(BOB 02/01B.Fani)追击帖:http://bbs.typhoon.org.c...
全文
回复(10) 05-02 23:12 来自版块 - 台风实况
表情
星夕沙莎[附件] [附件] [附件] [附件] [附件] [附件] [附件](05-05 01:33)
2018.26W新华社新德里5月4日电(记者赵旭)截至4日,袭击印度东海岸的热带气旋“法尼”已造成登陆地点奥迪沙邦12人死亡。多个受灾地区的灾后救援和重建工作目前已逐步展开。 “法尼”当地时间3日上午在奥迪沙邦普里地区登陆,气旋中心附近最大风力达每小时180公里左右。在造成一系列破坏后,“...(05-04 21:43)
2018.26W[附件](05-04 16:58)
2018.26W来源:新华社 新华社达卡5月3日电孟加拉国官员3日说,鉴于热带气旋“法尼”即将登陆,该国将把约250万人疏散至安全场所以躲避风暴。 孟加拉国气象部门3日表示,“法尼”可能在3日午夜登陆孟加拉国沿海的库尔纳及周边地区,中心附近最大风力可达每小时200公里。沿海低洼地区可能被海浪...(05-04 16:32)
2018.26W(来源:中国新闻网) [附件][附件][附件][附件][附件][附件](05-04 14:37)
327[姝ゅ鍐呭鍔犲瘑] 加尔各答国际机场录得最低气压986百帕 VECC 040300Z 26013KT 2800 -RA FEW010 SCT015 OVC090 24/23 Q1002 BECMG 3000 -RA VECC 040200Z 27013KT 2500 -RA SC...(05-04 12:00)
2018.26W新华社新德里5月3日电 热带气旋“法尼”3日在印度东部奥迪沙邦登陆,造成3人死亡,并对当地设施造成严重破坏。 “法尼”当地时间3日上午在奥迪沙邦普里地区登陆。据印度国家气象局测定,当地时间10时,气旋中心附近最大风力达每小时180公里左右,下午逐步减弱至每小时150公里左右...(05-04 08:25)
327[姝ゅ鍐呭鍔犲瘑] Biju Patnaik International Airport录得最大风速60节、最大阵风75节、最低气压951百帕 VEBS 031000Z 23040G50KT 0800 +RA SCT008 SCT016 FEW030CB OVC080 24/24 ...(05-03 15:00)
2018.26W[附件](05-03 13:32)
327[附件] [附件](05-03 12:00)

返回顶部